createdAt,value
2019-04-30T00:02:23.093Z,12.63
2019-04-30T00:04:52.716Z,13.15
2019-04-30T00:07:21.584Z,13.10
2019-04-30T00:09:53.925Z,13.13
2019-04-30T00:12:21.336Z,13.45
2019-04-30T00:14:50.013Z,12.70
2019-04-30T00:17:19.868Z,12.93
2019-04-30T00:19:50.443Z,13.03
2019-04-30T00:22:30.758Z,12.20
2019-04-30T00:24:50.021Z,11.22
2019-04-30T00:27:20.951Z,11.12
2019-04-30T00:29:50.115Z,10.80
2019-04-30T00:32:19.884Z,10.20
2019-04-30T00:34:48.577Z,10.70
2019-04-30T00:37:19.056Z,10.68
2019-04-30T00:39:51.129Z,11.48
2019-04-30T00:42:23.990Z,10.95
2019-04-30T00:44:48.909Z,12.07
2019-04-30T00:47:17.838Z,11.73
2019-04-30T00:49:47.282Z,12.25
2019-04-30T00:52:16.243Z,12.23
2019-04-30T00:54:45.215Z,12.68
2019-04-30T00:57:15.134Z,13.53
2019-04-30T00:59:47.783Z,12.45
2019-04-30T01:02:27.812Z,12.58
2019-04-30T01:05:00.149Z,12.23
2019-04-30T01:07:27.105Z,11.83
2019-04-30T01:09:55.751Z,11.60
2019-04-30T01:12:30.933Z,10.90
2019-04-30T01:14:54.719Z,10.50
2019-04-30T01:17:23.399Z,10.78
2019-04-30T01:19:54.532Z,9.90
2019-04-30T01:22:28.425Z,9.83
2019-04-30T01:24:52.823Z,9.18
2019-04-30T01:27:23.360Z,8.88
2019-04-30T01:29:54.079Z,8.50
2019-04-30T01:32:22.529Z,8.70
2019-04-30T01:34:54.049Z,8.40
2019-04-30T01:37:28.298Z,8.70
2019-04-30T01:39:51.797Z,8.60
2019-04-30T01:42:20.488Z,8.20
2019-04-30T01:44:53.598Z,7.85
2019-04-30T01:47:21.437Z,7.73
2019-04-30T01:49:49.911Z,7.92
2019-04-30T01:52:19.394Z,8.05
2019-04-30T01:54:49.015Z,8.20
2019-04-30T01:57:36.081Z,8.15
2019-04-30T02:00:13.668Z,8.25
2019-04-30T02:02:43.935Z,8.50
2019-04-30T02:05:12.529Z,7.97
2019-04-30T02:07:41.218Z,8.33
2019-04-30T02:10:10.064Z,7.72
2019-04-30T02:12:39.305Z,7.67
2019-04-30T02:15:09.537Z,7.13
2019-04-30T02:17:38.820Z,6.87
2019-04-30T02:20:08.905Z,7.05
2019-04-30T02:22:38.982Z,6.92
2019-04-30T02:25:09.651Z,6.57
2019-04-30T02:27:39.067Z,6.65
2019-04-30T02:30:11.111Z,6.58
2019-04-30T02:32:39.713Z,6.47
2019-04-30T02:35:12.500Z,6.63
2019-04-30T02:38:00.186Z,6.22
2019-04-30T02:40:30.655Z,6.58
2019-04-30T02:43:01.906Z,6.40
2019-04-30T02:45:30.768Z,6.72
2019-04-30T02:48:00.712Z,5.80
2019-04-30T02:50:29.498Z,6.40
2019-04-30T02:53:02.593Z,6.00
2019-04-30T02:55:44.316Z,5.78
2019-04-30T02:58:12.917Z,5.80
2019-04-30T03:00:41.584Z,5.42
2019-04-30T03:03:10.430Z,5.80
2019-04-30T03:05:39.394Z,5.30
2019-04-30T03:08:09.573Z,5.50
2019-04-30T03:10:40.175Z,5.40
2019-04-30T03:13:09.845Z,5.45
2019-04-30T03:15:39.471Z,5.90
2019-04-30T03:18:12.378Z,5.67
2019-04-30T03:20:42.650Z,5.45
2019-04-30T03:23:11.369Z,5.35
2019-04-30T03:25:40.562Z,5.47
2019-04-30T03:28:09.819Z,5.20
2019-04-30T03:30:42.128Z,5.40
2019-04-30T03:33:12.895Z,5.28
2019-04-30T03:35:46.692Z,5.20
2019-04-30T03:38:10.335Z,5.25
2019-04-30T03:40:40.481Z,4.83
2019-04-30T03:43:10.368Z,5.00
2019-04-30T03:45:40.166Z,5.00
2019-04-30T03:48:10.615Z,5.13
2019-04-30T03:50:52.502Z,5.17
2019-04-30T03:53:10.465Z,5.20
2019-04-30T03:55:40.017Z,5.20
2019-04-30T03:58:09.450Z,5.35
2019-04-30T04:00:46.740Z,4.80
2019-04-30T04:03:15.702Z,5.22
2019-04-30T04:05:49.764Z,4.90
2019-04-30T04:08:21.767Z,4.83
2019-04-30T04:10:53.103Z,5.20
2019-04-30T04:13:21.959Z,5.43
2019-04-30T04:15:50.878Z,5.08
2019-04-30T04:18:20.256Z,5.12
2019-04-30T04:21:11.679Z,5.30
2019-04-30T04:23:32.857Z,5.08
2019-04-30T04:26:01.497Z,5.12
2019-04-30T04:28:30.295Z,4.85
2019-04-30T04:31:00.419Z,5.15
2019-04-30T04:33:29.660Z,4.58
2019-04-30T04:35:59.774Z,4.90
2019-04-30T04:38:30.358Z,4.95
2019-04-30T04:41:02.636Z,4.58
2019-04-30T04:43:30.106Z,4.40
2019-04-30T04:45:59.465Z,4.30
2019-04-30T04:48:29.826Z,4.33
2019-04-30T04:51:00.116Z,4.37
2019-04-30T04:53:30.458Z,4.28
2019-04-30T04:55:59.904Z,4.60
2019-04-30T04:58:30.259Z,4.35
2019-04-30T05:00:59.297Z,4.28
2019-04-30T05:03:29.983Z,4.10
2019-04-30T05:06:02.268Z,4.10
2019-04-30T05:08:28.964Z,4.20
2019-04-30T05:10:59.426Z,4.10
2019-04-30T05:13:29.073Z,4.12
2019-04-30T05:15:59.576Z,4.10
2019-04-30T05:18:30.909Z,4.40
2019-04-30T05:20:59.664Z,4.60
2019-04-30T05:23:29.870Z,4.35
2019-04-30T05:25:59.322Z,4.20
2019-04-30T05:28:29.970Z,4.00
2019-04-30T05:30:59.353Z,4.12
2019-04-30T05:33:28.599Z,4.20
2019-04-30T05:35:59.277Z,4.30
2019-04-30T05:38:29.062Z,4.28
2019-04-30T05:40:59.549Z,4.20
2019-04-30T05:43:28.982Z,4.20
2019-04-30T05:45:58.703Z,3.90
2019-04-30T05:48:28.614Z,4.37
2019-04-30T05:50:59.149Z,4.60
2019-04-30T05:53:28.699Z,4.30
2019-04-30T05:55:59.192Z,3.90
2019-04-30T05:58:29.935Z,4.20
2019-04-30T06:00:59.683Z,4.13
2019-04-30T06:03:32.915Z,4.05
2019-04-30T06:06:00.899Z,3.77
2019-04-30T06:08:31.192Z,3.92
2019-04-30T06:11:09.074Z,3.90
2019-04-30T06:13:58.871Z,3.70
2019-04-30T06:16:29.803Z,3.90
2019-04-30T06:18:58.700Z,4.00
2019-04-30T06:21:29.382Z,3.90
2019-04-30T06:23:59.181Z,3.70
2019-04-30T06:26:29.532Z,3.87
2019-04-30T06:28:59.267Z,4.40
2019-04-30T06:31:34.782Z,3.98
2019-04-30T06:33:58.688Z,3.90
2019-04-30T06:36:28.602Z,4.20
2019-04-30T06:38:58.998Z,4.12
2019-04-30T06:41:29.583Z,3.80
2019-04-30T06:43:58.769Z,4.10
2019-04-30T06:46:28.617Z,3.92
2019-04-30T06:48:59.397Z,4.03
2019-04-30T06:51:30.612Z,3.80
2019-04-30T06:53:58.668Z,3.65
2019-04-30T06:56:28.936Z,3.92
2019-04-30T06:58:59.050Z,3.58
2019-04-30T07:01:29.083Z,4.10
2019-04-30T07:04:00.955Z,4.15
2019-04-30T07:06:32.530Z,3.80
2019-04-30T07:09:19.620Z,4.10
2019-04-30T07:12:02.472Z,3.90
2019-04-30T07:14:31.417Z,4.03
2019-04-30T07:16:59.997Z,3.90
2019-04-30T07:19:34.738Z,3.67
2019-04-30T07:21:59.787Z,3.90
2019-04-30T07:24:29.616Z,4.28
2019-04-30T07:27:01.027Z,4.20
2019-04-30T07:29:29.586Z,4.30
2019-04-30T07:31:59.217Z,4.00
2019-04-30T07:34:30.259Z,4.08
2019-04-30T07:37:13.396Z,4.17
2019-04-30T07:39:33.265Z,4.13
2019-04-30T07:41:59.918Z,3.87
2019-04-30T07:44:35.681Z,4.00
2019-04-30T07:47:02.207Z,4.20
2019-04-30T07:49:46.152Z,4.20
2019-04-30T07:52:02.192Z,4.15
2019-04-30T07:54:31.312Z,4.12
2019-04-30T07:57:00.435Z,3.90
2019-04-30T07:59:30.211Z,4.15
2019-04-30T08:02:07.444Z,4.08
2019-04-30T08:04:51.135Z,4.00
2019-04-30T08:07:20.650Z,4.20
2019-04-30T08:10:01.059Z,4.15
2019-04-30T08:12:31.976Z,4.35
2019-04-30T08:15:00.402Z,4.17
2019-04-30T08:17:29.290Z,3.80
2019-04-30T08:19:58.754Z,4.30
2019-04-30T08:22:29.732Z,4.20
2019-04-30T08:24:58.726Z,4.20
2019-04-30T08:27:29.494Z,4.20
2019-04-30T08:29:59.221Z,4.17
2019-04-30T08:32:29.544Z,4.23
2019-04-30T08:35:01.010Z,4.30
2019-04-30T08:37:30.080Z,4.37
2019-04-30T08:40:00.230Z,4.20
2019-04-30T08:42:34.018Z,4.10
2019-04-30T08:45:01.765Z,4.20
2019-04-30T08:47:30.453Z,4.30
2019-04-30T08:52:53.848Z,4.00
2019-04-30T08:55:22.760Z,4.20
2019-04-30T08:57:51.412Z,4.20
2019-04-30T09:00:20.207Z,4.30
2019-04-30T09:02:49.312Z,4.20
2019-04-30T09:05:34.797Z,4.23
2019-04-30T09:08:04.505Z,3.90
2019-04-30T09:10:33.139Z,4.47
2019-04-30T09:13:03.630Z,4.33
2019-04-30T09:15:32.841Z,4.47
2019-04-30T09:18:06.369Z,4.20
2019-04-30T09:20:31.829Z,4.05
2019-04-30T09:23:00.573Z,4.10
2019-04-30T09:25:29.546Z,3.98
2019-04-30T09:27:59.766Z,4.45
2019-04-30T09:30:29.938Z,4.12
2019-04-30T09:32:59.480Z,4.05
2019-04-30T09:35:31.835Z,3.90
2019-04-30T09:38:01.653Z,4.10
2019-04-30T09:40:32.486Z,4.03
2019-04-30T09:43:00.756Z,4.00
2019-04-30T09:45:29.479Z,4.20
2019-04-30T09:47:59.248Z,4.05
2019-04-30T09:50:28.868Z,3.80
2019-04-30T09:53:00.311Z,3.87
2019-04-30T09:55:29.162Z,4.22
2019-04-30T09:57:58.884Z,3.98
2019-04-30T10:00:29.544Z,4.10
2019-04-30T10:02:59.856Z,4.08
2019-04-30T10:05:29.298Z,3.92
2019-04-30T10:07:59.361Z,3.83
2019-04-30T10:10:30.075Z,4.03
2019-04-30T10:12:59.239Z,4.22
2019-04-30T10:15:41.990Z,4.40
2019-04-30T10:18:10.693Z,3.90
2019-04-30T10:20:40.826Z,4.28
2019-04-30T10:23:09.808Z,3.72
2019-04-30T10:25:38.990Z,4.10
2019-04-30T10:28:09.777Z,3.87
2019-04-30T10:30:41.070Z,4.12
2019-04-30T10:33:10.138Z,3.90
2019-04-30T10:35:39.065Z,4.30
2019-04-30T10:38:09.779Z,4.12
2019-04-30T10:40:38.985Z,4.28
2019-04-30T10:43:09.529Z,3.80
2019-04-30T10:45:38.766Z,3.92
2019-04-30T10:48:07.764Z,3.85
2019-04-30T10:50:36.535Z,3.87
2019-04-30T10:53:05.249Z,3.77
2019-04-30T10:55:34.163Z,4.00
2019-04-30T10:58:02.806Z,3.90
2019-04-30T11:00:35.908Z,3.62
2019-04-30T11:03:16.192Z,3.70
2019-04-30T11:05:35.461Z,3.90
2019-04-30T11:08:05.449Z,3.55
2019-04-30T11:13:27.914Z,3.60
2019-04-30T11:16:06.368Z,3.97
2019-04-30T11:18:28.930Z,3.58
2019-04-30T11:20:59.564Z,3.62
2019-04-30T11:23:29.630Z,3.05
2019-04-30T11:26:00.587Z,3.37
2019-04-30T11:28:29.791Z,3.80
2019-04-30T11:31:16.839Z,3.15
2019-04-30T11:33:46.096Z,3.50
2019-04-30T11:36:14.943Z,3.40
2019-04-30T11:38:43.660Z,3.35
2019-04-30T11:41:12.406Z,3.27
2019-04-30T11:43:49.524Z,3.37
2019-04-30T11:46:28.562Z,3.47
2019-04-30T11:48:58.572Z,3.37
2019-04-30T11:51:29.594Z,3.58
2019-04-30T11:53:59.557Z,3.22
2019-04-30T11:56:28.233Z,3.60
2019-04-30T11:58:58.731Z,3.67
2019-04-30T12:01:28.870Z,3.25
2019-04-30T12:03:59.840Z,3.77
2019-04-30T12:06:32.813Z,3.50
2019-04-30T12:09:03.033Z,3.50
2019-04-30T12:11:36.223Z,3.92
2019-04-30T12:14:05.112Z,4.08
2019-04-30T12:16:33.974Z,4.17
2019-04-30T12:19:03.217Z,3.90
2019-04-30T12:21:31.894Z,4.08
2019-04-30T12:24:00.584Z,4.22
2019-04-30T12:26:29.297Z,4.45
2019-04-30T12:29:02.964Z,4.20
2019-04-30T12:31:31.636Z,4.70
2019-04-30T12:34:00.287Z,4.57
2019-04-30T12:36:34.471Z,4.37
2019-04-30T12:39:03.144Z,4.28
2019-04-30T12:41:32.134Z,4.20
2019-04-30T12:44:00.941Z,4.12
2019-04-30T12:46:29.631Z,4.25
2019-04-30T12:49:01.339Z,4.37
2019-04-30T12:51:31.572Z,4.55
2019-04-30T12:54:07.557Z,4.50
2019-04-30T12:56:40.372Z,4.70
2019-04-30T12:59:09.051Z,4.60
2019-04-30T13:01:44.728Z,4.50
2019-04-30T13:04:13.331Z,4.60
2019-04-30T13:06:42.439Z,4.25
2019-04-30T13:09:12.186Z,4.25
2019-04-30T13:11:43.507Z,4.55
2019-04-30T13:14:21.436Z,4.53
2019-04-30T13:16:50.485Z,4.80
2019-04-30T13:19:19.131Z,4.50
2019-04-30T13:21:47.876Z,4.33
2019-04-30T13:24:21.636Z,4.65
2019-04-30T13:26:50.436Z,4.55
2019-04-30T13:29:32.110Z,4.60
2019-04-30T13:32:03.671Z,5.25
2019-04-30T13:34:45.926Z,4.53
2019-04-30T13:37:14.599Z,5.15
2019-04-30T13:40:01.985Z,4.90
2019-04-30T13:42:35.175Z,4.90
2019-04-30T13:45:05.128Z,4.92
2019-04-30T13:47:33.822Z,5.08
2019-04-30T13:50:02.526Z,5.00
2019-04-30T13:52:38.929Z,5.12
2019-04-30T13:55:10.761Z,4.78
2019-04-30T13:57:38.055Z,4.70
2019-04-30T14:00:08.715Z,5.08
2019-04-30T14:02:39.138Z,5.40
2019-04-30T14:05:10.895Z,5.20
2019-04-30T14:07:59.823Z,4.80
2019-04-30T14:10:30.752Z,4.83
2019-04-30T14:13:00.742Z,4.97
2019-04-30T14:15:29.425Z,4.70
2019-04-30T14:17:59.710Z,4.92
2019-04-30T14:20:28.546Z,4.78
2019-04-30T14:22:57.681Z,4.55
2019-04-30T14:25:38.234Z,4.47
2019-04-30T14:28:06.903Z,5.50
2019-04-30T14:30:35.618Z,5.22
2019-04-30T14:33:04.264Z,5.45
2019-04-30T14:35:33.351Z,5.92
2019-04-30T14:38:02.014Z,5.67
2019-04-30T14:40:31.380Z,5.03
2019-04-30T14:43:19.496Z,5.72
2019-04-30T14:45:49.170Z,5.58
2019-04-30T14:48:22.760Z,5.53
2019-04-30T14:50:50.139Z,4.90
2019-04-30T14:53:39.047Z,4.60
2019-04-30T14:56:15.619Z,4.90
2019-04-30T14:58:49.075Z,4.65
2019-04-30T15:01:26.348Z,5.35
2019-04-30T15:03:55.875Z,5.20
2019-04-30T15:06:24.553Z,5.40
2019-04-30T15:08:53.292Z,5.58
2019-04-30T15:11:21.976Z,5.53
2019-04-30T15:13:50.718Z,5.03
2019-04-30T15:16:19.367Z,5.35
2019-04-30T15:18:48.058Z,5.83
2019-04-30T15:21:16.871Z,5.90
2019-04-30T15:23:58.517Z,6.45
2019-04-30T15:26:25.122Z,5.67
2019-04-30T15:28:53.978Z,5.50
2019-04-30T15:31:22.694Z,5.78
2019-04-30T15:34:02.821Z,5.60
2019-04-30T15:36:30.377Z,6.20
2019-04-30T15:39:03.326Z,6.13
2019-04-30T15:41:31.970Z,5.70
2019-04-30T15:44:00.586Z,6.17
2019-04-30T15:46:30.773Z,6.50
2019-04-30T15:48:59.399Z,6.45
2019-04-30T15:51:28.091Z,5.87
2019-04-30T15:53:59.133Z,5.50
2019-04-30T15:56:37.412Z,5.27
2019-04-30T15:59:18.860Z,5.50
2019-04-30T16:02:05.516Z,5.60
2019-04-30T16:04:49.192Z,5.50
2019-04-30T16:07:19.904Z,5.28
2019-04-30T16:09:59.230Z,5.05
2019-04-30T16:12:34.836Z,4.70
2019-04-30T16:15:03.583Z,4.50
2019-04-30T16:17:32.237Z,4.47
2019-04-30T16:20:00.935Z,5.15
2019-04-30T16:22:36.434Z,4.67
2019-04-30T16:25:04.984Z,4.35
2019-04-30T16:27:33.691Z,4.67
2019-04-30T16:30:02.882Z,4.85
2019-04-30T16:32:31.768Z,4.85
2019-04-30T16:35:00.457Z,4.80
2019-04-30T16:37:29.709Z,4.90
2019-04-30T16:39:58.410Z,4.75
2019-04-30T16:42:29.087Z,4.25
2019-04-30T16:45:00.561Z,4.28
2019-04-30T16:47:29.981Z,4.60
2019-04-30T16:49:58.942Z,4.62
2019-04-30T16:52:29.417Z,4.87
2019-04-30T16:54:58.265Z,4.72
2019-04-30T16:57:30.361Z,3.92
2019-04-30T17:00:05.197Z,4.10
2019-04-30T17:02:35.855Z,4.30
2019-04-30T17:05:25.471Z,4.35
2019-04-30T17:08:01.789Z,4.90
2019-04-30T17:10:50.476Z,4.20
2019-04-30T17:13:20.414Z,4.25
2019-04-30T17:16:05.752Z,4.17
2019-04-30T17:18:35.998Z,4.22
2019-04-30T17:21:04.670Z,4.58
2019-04-30T17:23:33.751Z,4.30
2019-04-30T17:26:02.624Z,4.30
2019-04-30T17:28:31.646Z,4.30
2019-04-30T17:31:00.383Z,4.33
2019-04-30T17:33:29.067Z,3.92
2019-04-30T17:35:57.701Z,4.30
2019-04-30T17:38:26.409Z,3.98
2019-04-30T17:40:55.345Z,4.03
2019-04-30T17:43:24.461Z,4.00
2019-04-30T17:45:53.383Z,3.80
2019-04-30T17:48:22.295Z,3.80
2019-04-30T17:50:51.471Z,3.62
2019-04-30T17:53:20.211Z,3.90
2019-04-30T17:55:49.267Z,4.70
2019-04-30T17:58:20.473Z,11.53
2019-04-30T18:00:52.566Z,4.60
2019-04-30T18:03:21.215Z,4.08
2019-04-30T18:05:50.260Z,4.40
2019-04-30T18:08:18.957Z,4.70
2019-04-30T18:10:48.899Z,4.42
2019-04-30T18:13:17.613Z,4.55
2019-04-30T18:15:48.353Z,4.70
2019-04-30T18:18:22.486Z,4.67
2019-04-30T18:20:59.847Z,4.75
2019-04-30T18:23:33.115Z,4.22
2019-04-30T18:26:03.334Z,4.37
2019-04-30T18:28:32.070Z,3.77
2019-04-30T18:31:00.775Z,3.90
2019-04-30T18:33:31.733Z,3.75
2019-04-30T18:36:01.751Z,3.60
2019-04-30T18:38:31.097Z,3.50
2019-04-30T18:40:59.959Z,3.37
2019-04-30T18:43:28.834Z,3.27
2019-04-30T18:45:57.599Z,3.45
2019-04-30T18:48:26.261Z,4.62
2019-04-30T18:50:54.942Z,5.12
2019-04-30T18:53:28.590Z,5.30
2019-04-30T18:55:59.211Z,6.08
2019-04-30T18:58:39.224Z,6.28
2019-04-30T19:00:59.278Z,4.45
2019-04-30T19:03:29.294Z,5.00
2019-04-30T19:05:59.710Z,7.60
2019-04-30T19:08:29.926Z,7.40
2019-04-30T19:11:00.505Z,6.53
2019-04-30T19:13:50.977Z,7.33
2019-04-30T19:16:30.615Z,9.58
2019-04-30T19:19:01.002Z,9.95
2019-04-30T19:21:31.501Z,6.67
2019-04-30T19:24:00.129Z,5.17
2019-04-30T19:26:29.328Z,6.35
2019-04-30T19:28:58.397Z,9.33
2019-04-30T19:31:27.100Z,9.78
2019-04-30T19:33:55.765Z,9.65
2019-04-30T19:36:35.015Z,10.32
2019-04-30T19:38:56.458Z,11.30
2019-04-30T19:41:25.132Z,13.22
2019-04-30T19:43:53.794Z,21.90
2019-04-30T19:46:22.468Z,25.48
2019-04-30T19:48:53.616Z,28.50
2019-04-30T19:51:24.481Z,26.77
2019-04-30T19:53:53.418Z,24.10
2019-04-30T19:56:22.103Z,21.82
2019-04-30T19:59:01.704Z,19.55
2019-04-30T20:01:21.038Z,18.32
2019-04-30T20:03:49.734Z,18.05
2019-04-30T20:06:21.076Z,16.23
2019-04-30T20:08:49.785Z,16.42
2019-04-30T20:11:22.190Z,14.28
2019-04-30T20:13:50.857Z,12.40
2019-04-30T20:16:19.693Z,12.58
2019-04-30T20:18:49.029Z,12.40
2019-04-30T20:21:28.027Z,11.50
2019-04-30T20:23:49.637Z,11.63
2019-04-30T20:26:18.422Z,12.10
2019-04-30T20:28:48.688Z,12.18
2019-04-30T20:31:19.008Z,11.93
2019-04-30T20:33:48.914Z,13.35
2019-04-30T20:36:19.041Z,12.95
2019-04-30T20:38:55.546Z,13.05
2019-04-30T20:41:28.572Z,12.35
2019-04-30T20:43:57.801Z,11.90
2019-04-30T20:46:33.457Z,11.78
2019-04-30T20:48:56.769Z,12.40
2019-04-30T20:51:25.450Z,11.40
2019-04-30T20:53:55.758Z,11.00
2019-04-30T20:56:24.446Z,11.15
2019-04-30T20:58:57.907Z,10.40
2019-04-30T21:01:23.426Z,11.20
2019-04-30T21:03:53.519Z,10.90
2019-04-30T21:06:29.782Z,10.13
2019-04-30T21:08:56.437Z,10.20
2019-04-30T21:11:35.598Z,10.40
2019-04-30T21:14:04.326Z,10.28
2019-04-30T21:16:34.049Z,10.30
2019-04-30T21:19:02.727Z,10.05
2019-04-30T21:21:32.417Z,9.78
2019-04-30T21:24:08.209Z,9.03
2019-04-30T21:26:37.097Z,8.85
2019-04-30T21:29:13.712Z,9.08
2019-04-30T21:31:39.171Z,8.90
2019-04-30T21:34:26.958Z,9.45
2019-04-30T21:36:55.533Z,10.80
2019-04-30T21:39:25.219Z,11.63
2019-04-30T21:41:54.628Z,12.28
2019-04-30T21:44:23.698Z,12.65
2019-04-30T21:46:52.317Z,12.10
2019-04-30T21:49:25.906Z,11.90
2019-04-30T21:51:59.699Z,11.03
2019-04-30T21:54:30.521Z,11.18
2019-04-30T21:56:59.591Z,11.20
2019-04-30T21:59:30.150Z,10.55
2019-04-30T22:01:58.930Z,10.40
2019-04-30T22:04:27.859Z,10.00
2019-04-30T22:06:59.546Z,10.30
2019-04-30T22:09:28.372Z,10.38
2019-04-30T22:11:59.134Z,10.88
2019-04-30T22:14:27.685Z,10.63
2019-04-30T22:16:56.499Z,10.80
2019-04-30T22:19:28.079Z,10.85
2019-04-30T22:21:59.459Z,10.00
2019-04-30T22:24:30.393Z,10.53
2019-04-30T22:26:58.813Z,9.90
2019-04-30T22:29:39.070Z,9.80
2019-04-30T22:32:00.049Z,10.32
2019-04-30T22:34:28.907Z,10.00
2019-04-30T22:37:00.256Z,9.28
2019-04-30T22:39:30.972Z,9.68
2019-04-30T22:42:19.314Z,9.55
2019-04-30T22:44:48.554Z,9.50
2019-04-30T22:47:17.325Z,9.18
2019-04-30T22:49:49.834Z,9.05
2019-04-30T22:52:18.560Z,8.75
2019-04-30T22:54:50.212Z,9.25
2019-04-30T22:57:19.480Z,9.33
2019-04-30T22:59:50.276Z,9.45
2019-04-30T23:02:37.120Z,8.90
2019-04-30T23:05:22.262Z,9.20
2019-04-30T23:07:51.031Z,9.70
2019-04-30T23:10:24.013Z,9.40
2019-04-30T23:12:53.193Z,8.88
2019-04-30T23:15:22.210Z,9.50
2019-04-30T23:17:54.634Z,9.43
2019-04-30T23:20:26.480Z,9.23
2019-04-30T23:22:57.259Z,8.80
2019-04-30T23:25:26.069Z,9.08
2019-04-30T23:27:54.969Z,9.10
2019-04-30T23:30:23.837Z,8.88
2019-04-30T23:32:52.640Z,9.50
2019-04-30T23:35:21.263Z,9.97
2019-04-30T23:37:49.905Z,9.73
2019-04-30T23:40:23.139Z,9.55
2019-04-30T23:42:53.131Z,10.30
2019-04-30T23:45:23.819Z,9.88
2019-04-30T23:47:53.075Z,10.27
2019-04-30T23:50:24.058Z,9.88
2019-04-30T23:52:55.378Z,10.53
2019-04-30T23:55:24.248Z,10.53
2019-04-30T23:57:59.280Z,10.15
